Time;durP1;ratioP1;P1;durP2;ratioP2;P2;SDS_P1;SDS_P2;PMS_P1;PMS_P2;Temp;Humidity;BMP_temperature;BMP_pressure;BME280_temperature;BME280_humidity;BME280_pressure;Samples;Min_cycle;Max_cycle;Signal;HPM_P1;HPM_P2
2022/03/27 00:01:34;;;;;;;27.98;14.82;;;6.50;42.50;;;;;;5095319;28;20051;-21
2022/03/27 00:04:01;;;;;;;53.72;31.60;;;6.50;41.80;;;;;;5095721;28;20032;-21
2022/03/27 00:06:28;;;;;;;43.85;26.13;;;6.50;42.50;;;;;;5095295;28;20028;-22
2022/03/27 00:08:54;;;;;;;52.15;28.30;;;6.40;44.50;;;;;;5095682;28;20115;-21
2022/03/27 00:11:24;;;;;;;25.23;14.93;;;6.40;43.60;;;;;;5093585;28;20077;-21
2022/03/27 00:13:51;;;;;;;30.55;17.52;;;6.40;42.50;;;;;;5095281;28;20073;-21
2022/03/27 00:16:17;;;;;;;41.63;24.58;;;6.40;42.30;;;;;;5095341;28;20062;-22
2022/03/27 00:18:43;;;;;;;30.33;17.30;;;6.30;42.70;;;;;;5095136;28;20069;-21
2022/03/27 00:21:10;;;;;;;45.85;27.55;;;6.30;43.00;;;;;;5095711;28;20021;-21
2022/03/27 00:23:37;;;;;;;32.20;17.70;;;6.30;43.20;;;;;;5095342;28;20392;-22
2022/03/27 00:26:04;;;;;;;39.40;20.60;;;6.20;42.80;;;;;;5094921;28;20535;-21
2022/03/27 00:28:33;;;;;;;27.02;14.02;;;6.20;43.50;;;;;;5095097;28;20028;-22
2022/03/27 00:31:07;;;;;;;44.22;25.48;;;6.20;43.40;;;;;;5094930;28;20106;-22
2022/03/27 00:33:35;;;;;;;36.63;20.90;;;6.10;42.90;;;;;;5094925;28;20503;-21
2022/03/27 00:36:03;;;;;;;29.75;16.85;;;6.10;43.30;;;;;;5094831;28;20527;-21
2022/03/27 00:38:30;;;;;;;24.83;14.35;;;6.10;43.40;;;;;;5094587;28;20036;-21
2022/03/27 00:40:57;;;;;;;50.45;29.08;;;6.00;43.30;;;;;;5094607;28;20487;-22
2022/03/27 00:43:25;;;;;;;43.05;23.40;;;6.00;43.20;;;;;;5094627;28;20032;-22
2022/03/27 00:45:52;;;;;;;45.95;27.70;;;5.90;43.60;;;;;;5094636;28;20550;-21
2022/03/27 00:48:19;;;;;;;54.92;31.58;;;5.90;43.80;;;;;;5094505;28;20050;-22
2022/03/27 00:50:50;;;;;;;33.03;19.25;;;5.90;44.20;;;;;;5094859;28;20085;-21
2022/03/27 00:53:17;;;;;;;37.90;19.42;;;5.80;43.40;;;;;;5094776;28;20020;-21
2022/03/27 00:55:47;;;;;;;32.72;19.00;;;5.80;43.90;;;;;;5094545;28;20069;-22
2022/03/27 00:58:13;;;;;;;38.72;21.58;;;5.80;43.70;;;;;;5094374;28;20024;-21
2022/03/27 01:00:41;;;;;;;38.50;21.63;;;5.70;43.80;;;;;;5094252;28;20020;-22
2022/03/27 01:03:12;;;;;;;30.38;16.65;;;5.70;43.70;;;;;;5094624;28;20040;-21
2022/03/27 01:05:44;;;;;;;19.58;12.10;;;5.60;43.70;;;;;;5094944;28;20465;-22
2022/03/27 01:08:12;;;;;;;22.63;13.18;;;5.60;43.50;;;;;;5094397;28;20054;-21
2022/03/27 01:10:39;;;;;;;25.77;13.73;;;5.50;43.40;;;;;;5093853;28;20495;-22
2022/03/27 01:13:12;;;;;;;17.42;10.40;;;5.50;43.70;;;;;;5094212;28;20016;-22
2022/03/27 01:15:47;;;;;;;22.15;14.00;;;5.50;43.40;;;;;;5094152;28;20020;-21
2022/03/27 01:18:12;;;;;;;;;;;5.40;43.40;;;;;;5094561;28;20024;-24
2022/03/27 01:20:42;;;;;;;28.95;17.55;;;5.30;45.20;;;;;;5094318;28;19912;-21
2022/03/27 01:23:10;;;;;;;50.03;29.42;;;5.30;44.50;;;;;;5093524;28;20555;-21
2022/03/27 01:25:37;;;;;;;26.58;14.95;;;5.20;44.40;;;;;;5092547;28;20051;-22
2022/03/27 01:28:05;;;;;;;54.40;30.83;;;5.20;44.10;;;;;;5094198;28;20059;-22
2022/03/27 01:30:31;;;;;;;46.53;27.45;;;5.20;47.20;;;;;;5093922;28;20050;-21
2022/03/27 01:32:57;;;;;;;42.53;25.48;;;5.10;46.60;;;;;;5094086;28;20020;-22
2022/03/27 01:35:24;;;;;;;38.72;22.02;;;5.10;46.30;;;;;;5093979;28;20495;-22
2022/03/27 01:37:51;;;;;;;22.02;13.18;;;5.10;45.20;;;;;;5094058;28;20020;-21
2022/03/27 01:40:17;;;;;;;24.50;14.45;;;5.10;45.00;;;;;;5094132;28;20031;-22
2022/03/27 01:42:44;;;;;;;26.00;14.95;;;5.00;44.50;;;;;;5093838;28;20029;-22
2022/03/27 01:45:11;;;;;;;30.70;16.98;;;5.00;43.90;;;;;;5093636;28;20028;-22
2022/03/27 01:47:38;;;;;;;33.53;20.52;;;5.00;44.30;;;;;;5093908;28;20110;-21
2022/03/27 01:50:08;;;;;;;26.25;15.75;;;5.00;44.40;;;;;;5093657;28;20028;-22
2022/03/27 01:52:34;;;;;;;21.02;12.77;;;4.90;45.20;;;;;;5093291;28;20027;-22
2022/03/27 01:55:00;;;;;;;39.20;24.73;;;4.90;45.30;;;;;;5093440;28;20418;-21
2022/03/27 01:57:27;;;;;;;58.63;32.22;;;4.90;45.70;;;;;;5093583;28;20026;-22
2022/03/27 01:59:53;;;;;;;34.58;20.67;;;4.80;47.80;;;;;;5093457;28;20043;-21
2022/03/27 02:02:23;;;;;;;34.22;20.98;;;4.80;46.60;;;;;;5092978;28;20040;-22
2022/03/27 02:04:53;;;;;;;33.45;19.55;;;4.70;46.50;;;;;;5093696;28;20020;-22
2022/03/27 02:07:22;;;;;;;30.45;17.98;;;4.70;46.10;;;;;;5093345;28;20056;-21
2022/03/27 02:09:49;;;;;;;35.20;19.95;;;4.60;46.40;;;;;;5093570;28;20043;-22
2022/03/27 02:12:15;;;;;;;35.83;20.58;;;4.60;46.80;;;;;;5092928;28;20058;-22
2022/03/27 02:14:41;;;;;;;63.13;37.08;;;4.60;47.60;;;;;;5093503;28;20023;-22
2022/03/27 02:17:10;;;;;;;37.10;22.13;;;4.50;47.00;;;;;;5093502;28;20024;-22
2022/03/27 02:19:36;;;;;;;24.45;14.00;;;4.50;48.50;;;;;;5093438;28;20024;-22
2022/03/27 02:22:03;;;;;;;21.85;12.45;;;4.50;46.60;;;;;;5093067;28;20046;-21
2022/03/27 02:24:30;;;;;;;22.05;12.88;;;4.50;46.30;;;;;;5092850;28;20085;-22
2022/03/27 02:26:56;;;;;;;23.05;13.48;;;4.40;45.70;;;;;;5092360;28;20126;-22
2022/03/27 02:29:22;;;;;;;28.73;17.10;;;4.40;46.20;;;;;;5093265;28;20078;-21
2022/03/27 02:31:48;;;;;;;18.17;10.85;;;4.40;45.80;;;;;;5093051;28;20028;-22
2022/03/27 02:34:17;;;;;;;18.30;10.07;;;4.40;46.20;;;;;;5093056;28;20020;-22
2022/03/27 02:36:44;;;;;;;20.52;11.48;;;4.40;45.90;;;;;;5096271;28;20028;-22
2022/03/27 02:39:10;;;;;;;18.13;10.73;;;4.40;46.00;;;;;;5097702;28;20023;-22
2022/03/27 02:41:36;;;;;;;16.85;11.05;;;4.40;45.90;;;;;;5096991;28;20028;-21
2022/03/27 02:44:01;;;;;;;21.73;12.35;;;4.30;45.90;;;;;;5097587;28;20499;-21
2022/03/27 02:46:27;;;;;;;28.75;17.95;;;4.30;46.30;;;;;;5096865;28;20027;-22
2022/03/27 02:48:53;;;;;;;27.98;16.73;;;4.30;46.00;;;;;;5095702;28;20111;-21
2022/03/27 02:51:19;;;;;;;18.98;11.43;;;4.20;46.80;;;;;;5095548;28;20028;-22
2022/03/27 02:53:44;;;;;;;28.13;15.40;;;4.20;46.10;;;;;;5096818;28;20028;-22
2022/03/27 02:56:10;;;;;;;41.20;25.38;;;4.20;47.00;;;;;;5095766;28;20028;-22
2022/03/27 02:58:36;;;;;;;22.38;12.80;;;4.20;46.70;;;;;;5096858;28;20031;-22
2022/03/27 03:01:05;;;;;;;23.52;13.93;;;4.20;47.20;;;;;;5096967;28;20054;-22
2022/03/27 03:03:31;;;;;;;29.55;17.02;;;4.10;46.30;;;;;;5097274;28;20064;-21
2022/03/27 03:05:59;;;;;;;22.20;13.60;;;4.10;47.10;;;;;;5096925;28;20036;-21
2022/03/27 03:08:27;;;;;;;24.75;14.60;;;4.10;46.40;;;;;;5096647;28;20031;-22
2022/03/27 03:10:53;;;;;;;17.23;10.65;;;4.10;46.80;;;;;;5096744;28;20054;-22
2022/03/27 03:13:19;;;;;;;52.50;32.03;;;4.10;46.30;;;;;;5096437;28;20028;-21
2022/03/27 03:15:45;;;;;;;61.53;36.38;;;4.10;49.80;;;;;;5097212;28;20031;-21
2022/03/27 03:18:11;;;;;;;38.47;21.95;;;4.00;54.80;;;;;;5096719;28;20122;-21
2022/03/27 03:20:39;;;;;;;54.20;31.70;;;4.00;51.40;;;;;;5096991;28;20032;-21
2022/03/27 03:23:05;;;;;;;42.30;24.33;;;4.00;49.20;;;;;;5096189;28;20028;-21
2022/03/27 03:25:31;;;;;;;61.65;34.58;;;4.00;51.50;;;;;;5096518;28;20089;-22
2022/03/27 03:27:57;;;;;;;34.38;20.65;;;3.90;52.30;;;;;;5096315;28;20027;-21
2022/03/27 03:30:24;;;;;;;48.42;26.35;;;3.90;50.50;;;;;;5096247;28;20024;-22
2022/03/27 03:32:50;;;;;;;56.38;31.73;;;4.00;49.60;;;;;;5096731;28;20048;-22
2022/03/27 03:35:16;;;;;;;32.10;19.10;;;3.90;50.70;;;;;;5096355;28;20023;-22
2022/03/27 03:37:42;;;;;;;53.80;33.22;;;4.00;51.10;;;;;;5096030;28;20430;-21
2022/03/27 03:40:09;;;;;;;47.58;27.55;;;3.90;51.50;;;;;;5095951;28;20056;-21
2022/03/27 03:42:36;;;;;;;53.40;30.17;;;3.90;51.90;;;;;;5095610;28;20031;-22
2022/03/27 03:45:04;;;;;;;76.35;43.53;;;3.90;51.70;;;;;;5095866;28;20566;-22
2022/03/27 03:47:30;;;;;;;55.42;31.92;;;4.00;54.20;;;;;;5095357;28;20040;-21
2022/03/27 03:49:56;;;;;;;39.75;22.30;;;4.00;57.30;;;;;;5095776;28;20016;-21
2022/03/27 03:52:21;;;;;;;28.70;16.65;;;4.00;55.90;;;;;;5095487;28;20035;-22
2022/03/27 03:54:48;;;;;;;51.33;30.20;;;4.00;52.60;;;;;;5096627;28;20107;-22
2022/03/27 03:57:14;;;;;;;34.25;20.65;;;4.00;51.70;;;;;;5095879;28;20024;-22
2022/03/27 03:59:40;;;;;;;25.48;14.55;;;4.00;52.40;;;;;;5095574;28;20031;-22
2022/03/27 04:02:07;;;;;;;35.55;19.98;;;4.00;52.40;;;;;;5095380;28;20121;-21
2022/03/27 04:04:35;;;;;;;21.63;12.90;;;4.00;50.70;;;;;;5095280;28;20449;-22
2022/03/27 04:07:01;;;;;;;34.33;20.35;;;4.00;50.70;;;;;;5095357;28;20548;-21
2022/03/27 04:09:29;;;;;;;37.80;21.75;;;4.00;51.70;;;;;;5095634;28;20055;-22
2022/03/27 04:11:56;;;;;;;25.35;14.10;;;3.90;50.30;;;;;;5095607;28;20024;-21
2022/03/27 04:14:22;;;;;;;23.80;13.93;;;3.90;50.60;;;;;;5095102;28;20028;-21
2022/03/27 04:16:48;;;;;;;26.05;15.27;;;3.90;50.30;;;;;;5095553;28;20020;-22
2022/03/27 04:19:15;;;;;;;30.30;17.30;;;3.90;50.60;;;;;;5095160;28;20499;-21
2022/03/27 04:21:42;;;;;;;33.90;19.52;;;3.90;50.00;;;;;;5095079;28;20485;-21
2022/03/27 04:24:08;;;;;;;28.80;16.30;;;3.90;51.20;;;;;;5095340;28;20031;-21
2022/03/27 04:26:35;;;;;;;25.92;14.18;;;3.90;50.70;;;;;;5094810;28;20396;-21
2022/03/27 04:29:02;;;;;;;30.42;18.45;;;3.90;51.10;;;;;;5095398;28;20472;-22
2022/03/27 04:31:29;;;;;;;26.02;15.18;;;3.90;51.80;;;;;;5095258;28;20035;-21
2022/03/27 04:33:56;;;;;;;19.00;10.70;;;3.90;53.30;;;;;;5094909;28;20107;-21
2022/03/27 04:36:22;;;;;;;49.13;26.52;;;3.90;51.10;;;;;;5094818;28;20024;-21
2022/03/27 04:38:49;;;;;;;32.50;19.50;;;3.80;53.80;;;;;;5094843;28;20032;-21
2022/03/27 04:41:15;;;;;;;38.63;21.60;;;3.80;52.00;;;;;;5094807;28;20067;-21
2022/03/27 04:43:41;;;;;;;20.83;11.90;;;3.80;52.10;;;;;;5094627;28;20028;-22
2022/03/27 04:46:07;;;;;;;67.30;37.10;;;3.80;51.10;;;;;;5094969;28;20043;-21
2022/03/27 04:48:34;;;;;;;36.05;21.70;;;3.70;52.10;;;;;;5094734;28;20491;-22
2022/03/27 04:51:00;;;;;;;35.72;19.83;;;3.70;53.10;;;;;;5094910;28;20024;-21
2022/03/27 04:53:26;;;;;;;29.55;17.15;;;3.70;51.80;;;;;;5093298;28;20103;-21
2022/03/27 04:55:52;;;;;;;30.20;17.85;;;3.60;51.30;;;;;;5094460;28;20078;-21
2022/03/27 04:58:19;;;;;;;26.05;14.60;;;3.60;52.70;;;;;;5094197;28;20435;-21
2022/03/27 05:00:45;;;;;;;19.17;11.05;;;3.60;51.60;;;;;;5094773;28;20016;-22
2022/03/27 05:03:11;;;;;;;21.83;13.23;;;3.60;51.10;;;;;;5094653;28;20031;-21
2022/03/27 05:05:39;;;;;;;22.88;12.77;;;3.60;51.20;;;;;;5094350;28;20043;-21
2022/03/27 05:08:05;;;;;;;37.58;21.20;;;3.60;51.20;;;;;;5094242;28;20085;-21
2022/03/27 05:10:31;;;;;;;31.73;18.63;;;3.50;52.50;;;;;;5094128;28;20020;-22
2022/03/27 05:12:57;;;;;;;22.67;13.30;;;3.50;52.20;;;;;;5094359;28;20065;-22
2022/03/27 05:15:23;;;;;;;23.75;14.20;;;3.50;52.30;;;;;;5094106;28;20056;-21
2022/03/27 05:17:55;;;;;;;27.70;17.67;;;3.50;52.30;;;;;;5094381;28;20062;-21
2022/03/27 05:20:22;;;;;;;38.17;22.73;;;3.50;51.30;;;;;;5094192;28;20016;-22
2022/03/27 05:22:48;;;;;;;19.98;11.23;;;3.50;51.60;;;;;;5093961;28;20031;-22
2022/03/27 05:25:16;;;;;;;26.85;16.45;;;3.50;51.30;;;;;;5094311;28;20107;-21
2022/03/27 05:27:47;;;;;;;20.23;12.38;;;3.50;52.20;;;;;;5093978;28;20122;-21
2022/03/27 05:30:19;;;;;;;26.45;15.60;;;3.50;51.30;;;;;;5094143;28;20056;-22
2022/03/27 05:32:45;;;;;;;19.88;11.07;;;3.50;51.00;;;;;;5094605;28;20054;-21
2022/03/27 05:35:12;;;;;;;22.80;14.80;;;3.60;50.90;;;;;;5094451;28;20036;-21
2022/03/27 05:37:40;;;;;;;34.75;20.27;;;3.60;51.10;;;;;;5094023;28;20117;-21
2022/03/27 05:40:09;;;;;;;24.25;13.85;;;3.60;50.60;;;;;;5094001;28;20063;-21
2022/03/27 05:42:36;;;;;;;42.28;24.20;;;3.70;50.70;;;;;;5093574;28;20039;-21
2022/03/27 05:45:07;;;;;;;20.20;11.15;;;3.80;52.10;;;;;;5093958;28;20580;-22
2022/03/27 05:47:33;;;;;;;17.83;11.48;;;3.80;50.60;;;;;;5093869;28;20111;-22
2022/03/27 05:50:00;;;;;;;18.08;10.48;;;3.90;50.40;;;;;;5093858;28;20028;-22
2022/03/27 05:52:26;;;;;;;18.25;10.60;;;4.00;49.90;;;;;;5093691;28;20028;-22
2022/03/27 05:54:53;;;;;;;30.02;17.65;;;4.10;49.90;;;;;;5093479;28;20070;-22
2022/03/27 05:57:19;;;;;;;25.30;13.88;;;4.10;50.30;;;;;;5093577;28;20396;-21
2022/03/27 05:59:46;;;;;;;35.03;20.55;;;4.20;51.10;;;;;;5093467;28;20024;-21
2022/03/27 06:02:13;;;;;;;32.88;18.70;;;4.40;51.10;;;;;;5093233;28;20039;-22
2022/03/27 06:04:41;;;;;;;30.73;17.58;;;4.50;51.80;;;;;;5093902;28;20483;-22
2022/03/27 06:07:08;;;;;;;27.98;17.02;;;4.60;51.50;;;;;;5093632;28;20024;-22
2022/03/27 06:09:34;;;;;;;26.55;16.15;;;4.70;51.20;;;;;;5093171;28;20028;-22
2022/03/27 06:12:02;;;;;;;33.70;18.92;;;4.90;50.70;;;;;;5093164;28;20024;-21
2022/03/27 06:14:29;;;;;;;32.78;17.85;;;5.00;50.50;;;;;;5093355;28;20032;-22
2022/03/27 06:16:55;;;;;;;41.13;22.15;;;5.10;50.40;;;;;;5093872;28;20032;-21
2022/03/27 06:19:21;;;;;;;21.73;12.38;;;5.30;50.90;;;;;;5092324;28;20028;-22
2022/03/27 06:21:47;;;;;;;24.15;14.35;;;5.50;51.30;;;;;;5093406;28;20032;-21
2022/03/27 06:24:14;;;;;;;47.10;26.80;;;5.60;50.10;;;;;;5092855;28;20032;-22
2022/03/27 06:26:41;;;;;;;39.35;22.52;;;5.90;50.30;;;;;;5093065;28;20507;-22
2022/03/27 06:29:10;;;;;;;35.20;20.13;;;6.10;50.20;;;;;;5093124;28;20032;-21
2022/03/27 06:31:40;;;;;;;27.50;16.48;;;6.40;50.50;;;;;;5093203;28;20431;-21
2022/03/27 06:34:07;;;;;;;45.05;26.98;;;6.60;50.20;;;;;;5093517;28;20036;-21
2022/03/27 06:36:34;;;;;;;28.25;17.58;;;6.80;49.90;;;;;;5093108;28;20040;-22
2022/03/27 06:39:02;;;;;;;42.90;26.35;;;7.10;49.40;;;;;;5092952;28;20024;-22
2022/03/27 06:41:29;;;;;;;41.88;25.33;;;7.30;49.40;;;;;;5092960;28;20044;-22
2022/03/27 06:43:55;;;;;;;42.95;24.83;;;7.60;49.10;;;;;;5092837;28;20032;-22
2022/03/27 06:46:21;;;;;;;29.48;18.13;;;7.80;48.70;;;;;;5092779;28;20430;-21
2022/03/27 06:48:52;;;;;;;28.98;17.58;;;8.00;48.40;;;;;;5093197;28;20035;-21
2022/03/27 06:51:19;;;;;;;28.00;17.58;;;8.20;48.10;;;;;;5092910;28;20468;-21
2022/03/27 06:53:47;;;;;;;41.60;22.77;;;8.40;47.70;;;;;;5092857;28;20472;-21
2022/03/27 06:56:14;;;;;;;53.00;30.92;;;8.60;47.70;;;;;;5093020;28;20514;-20
2022/03/27 06:58:39;;;;;;;29.98;17.65;;;8.80;47.70;;;;;;5092853;28;20028;-21
2022/03/27 07:03:50;;;;;;;31.20;19.55;;;9.30;47.50;;;;;;5092937;28;20094;-21
2022/03/27 07:06:17;;;;;;;36.13;21.23;;;9.40;47.40;;;;;;5091263;28;20038;-22
2022/03/27 07:08:43;;;;;;;30.70;19.05;;;9.70;47.60;;;;;;5092687;28;20450;-21
2022/03/27 07:11:09;;;;;;;27.98;15.50;;;9.90;47.20;;;;;;5092954;28;20476;-22
2022/03/27 07:13:35;;;;;;;20.70;13.65;;;10.00;47.10;;;;;;5093022;28;20020;-21
2022/03/27 07:16:02;;;;;;;21.95;13.65;;;10.20;46.70;;;;;;5092830;28;20391;-21
2022/03/27 07:18:29;;;;;;;31.60;18.95;;;10.40;47.10;;;;;;5092810;28;20051;-22
2022/03/27 07:20:54;;;;;;;32.22;19.08;;;10.60;46.80;;;;;;5092967;28;20551;-21
2022/03/27 07:23:21;;;;;;;29.05;16.55;;;10.80;47.00;;;;;;5096102;28;20099;-21
2022/03/27 07:25:50;;;;;;;30.17;17.77;;;11.00;46.60;;;;;;5096290;28;20032;-21
2022/03/27 07:28:18;;;;;;;30.38;19.48;;;11.20;46.70;;;;;;5096225;28;20039;-20
2022/03/27 07:30:45;;;;;;;25.42;15.85;;;11.40;46.60;;;;;;5096423;28;20035;-20
2022/03/27 07:33:14;;;;;;;23.80;14.35;;;11.60;46.30;;;;;;5096122;28;20024;-21
2022/03/27 07:35:40;;;;;;;24.23;14.25;;;11.80;46.00;;;;;;5096076;28;20415;-21
2022/03/27 07:38:07;;;;;;;27.95;16.45;;;12.00;45.90;;;;;;5096230;28;20032;-20
2022/03/27 07:40:34;;;;;;;30.50;17.02;;;12.20;45.60;;;;;;5096078;28;20040;-21
2022/03/27 07:43:00;;;;;;;28.83;17.85;;;12.40;45.20;;;;;;5095799;28;20032;-21
2022/03/27 07:45:29;;;;;;;29.90;18.55;;;12.60;45.00;;;;;;5096511;28;20031;-21
2022/03/27 07:47:56;;;;;;;21.05;13.10;;;12.90;44.80;;;;;;5096007;28;20020;-21
2022/03/27 07:50:27;;;;;;;24.90;15.13;;;13.00;44.80;;;;;;5095609;28;20495;-21
2022/03/27 07:52:53;;;;;;;30.80;20.15;;;13.20;44.50;;;;;;5096114;28;20039;-21
2022/03/27 07:55:20;;;;;;;25.70;17.17;;;13.50;44.50;;;;;;5095696;28;20396;-21
2022/03/27 07:57:46;;;;;;;20.70;13.93;;;13.70;44.20;;;;;;5095823;28;20031;-21
2022/03/27 08:00:15;;;;;;;25.58;16.63;;;13.90;44.00;;;;;;5095867;28;20023;-20
2022/03/27 08:02:42;;;;;;;27.60;16.65;;;14.20;43.70;;;;;;5095492;28;20040;-20
2022/03/27 08:05:09;;;;;;;29.27;16.95;;;14.40;43.50;;;;;;5095784;28;20123;-21
2022/03/27 08:07:35;;;;;;;35.30;21.83;;;14.70;43.20;;;;;;5095799;28;20028;-20
2022/03/27 08:10:02;;;;;;;26.52;18.08;;;14.90;43.20;;;;;;5096029;28;20526;-20
2022/03/27 08:12:29;;;;;;;31.65;19.33;;;15.10;42.70;;;;;;5095319;28;20032;-21
2022/03/27 08:14:56;;;;;;;24.20;14.48;;;15.40;42.50;;;;;;5095353;28;20522;-21
2022/03/27 08:17:23;;;;;;;30.85;17.83;;;15.60;42.20;;;;;;5095381;28;20020;-20
2022/03/27 08:19:50;;;;;;;20.92;14.35;;;15.80;42.00;;;;;;5095233;28;20119;-21
2022/03/27 08:22:17;;;;;;;33.08;20.52;;;16.00;41.70;;;;;;5095277;28;20086;-21
2022/03/27 08:24:43;;;;;;;31.83;21.20;;;16.20;41.40;;;;;;5095136;28;20036;-21
2022/03/27 08:27:09;;;;;;;31.23;20.13;;;16.40;41.10;;;;;;5095254;28;20055;-21
2022/03/27 08:29:38;;;;;;;32.70;19.73;;;16.60;40.60;;;;;;5095364;28;20039;-21
2022/03/27 08:32:06;;;;;;;31.50;19.73;;;16.80;40.30;;;;;;5095087;28;20480;-21
2022/03/27 08:34:35;;;;;;;31.48;19.27;;;16.90;40.10;;;;;;5094899;28;20020;-21
2022/03/27 08:37:04;;;;;;;29.05;18.35;;;17.10;39.80;;;;;;5095203;28;20024;-21
2022/03/27 08:39:31;;;;;;;45.53;25.25;;;17.40;39.60;;;;;;5095579;28;20043;-20
2022/03/27 08:41:57;;;;;;;29.65;17.73;;;17.50;39.10;;;;;;5095228;28;20028;-21
2022/03/27 08:44:26;;;;;;;22.63;14.52;;;17.80;38.80;;;;;;5094479;28;20040;-21
2022/03/27 08:46:56;;;;;;;32.40;21.00;;;18.00;38.60;;;;;;5094673;28;20103;-21
2022/03/27 08:50:12;;;;;;;31.92;18.77;;;18.20;38.20;;;;;;5094654;28;20031;-21
2022/03/27 08:52:57;;;;;;;34.92;22.02;;;18.50;37.80;;;;;;5093568;28;20392;-21
2022/03/27 08:55:38;;;;;;;30.23;18.10;;;18.80;36.50;;;;;;5095152;28;20033;-21
2022/03/27 08:58:07;;;;;;;29.63;18.83;;;19.00;37.10;;;;;;5094462;28;20115;-20
2022/03/27 09:00:34;;;;;;;31.42;19.45;;;19.30;36.90;;;;;;5094380;28;20122;-21
2022/03/27 09:03:03;;;;;;;30.67;19.50;;;19.60;36.40;;;;;;5095129;28;20039;-21
2022/03/27 09:05:29;;;;;;;30.55;19.60;;;19.90;36.40;;;;;;5094374;28;20039;-20
2022/03/27 09:07:56;;;;;;;27.92;17.02;;;20.10;35.50;;;;;;5094361;28;20020;-21
2022/03/27 09:10:29;;;;;;;34.22;21.42;;;20.40;35.40;;;;;;5094082;28;20035;-21
2022/03/27 09:12:56;;;;;;;32.80;21.63;;;20.60;34.90;;;;;;5094198;28;20480;-21
2022/03/27 09:15:23;;;;;;;30.88;20.88;;;20.90;34.50;;;;;;5094359;28;20027;-20
2022/03/27 09:18:04;;;;;;;35.30;21.73;;;21.10;34.30;;;;;;5094438;28;20028;-21
2022/03/27 09:20:41;;;;;;;31.17;20.40;;;21.40;33.60;;;;;;5094185;28;20036;-21
2022/03/27 09:23:28;;;;;;;36.40;23.25;;;21.60;33.20;;;;;;5094264;28;20043;-20
2022/03/27 09:26:04;;;;;;;32.80;20.70;;;21.90;32.80;;;;;;5094035;28;20020;-21
2022/03/27 09:28:41;;;;;;;26.90;17.67;;;22.10;33.00;;;;;;5093953;28;20074;-21
2022/03/27 09:31:13;;;;;;;27.58;16.60;;;22.40;33.00;;;;;;5094244;28;20101;-21
2022/03/27 09:33:48;;;;;;;30.77;20.80;;;22.70;32.90;;;;;;5094177;28;20039;-21
2022/03/27 09:36:32;;;;;;;32.78;20.67;;;23.00;31.40;;;;;;5093560;28;20020;-21
2022/03/27 09:39:03;;;;;;;25.27;15.60;;;23.20;31.60;;;;;;5094121;28;20024;-21
2022/03/27 09:41:53;;;;;;;30.23;20.73;;;23.60;31.90;;;;;;5093978;28;20020;-20
2022/03/27 09:44:39;;;;;;;28.90;19.83;;;23.90;30.70;;;;;;5093058;28;20054;-21
2022/03/27 09:47:13;;;;;;;24.15;15.63;;;24.20;30.30;;;;;;5093678;28;20493;-21
2022/03/27 09:49:42;;;;;;;28.80;18.48;;;24.50;31.10;;;;;;5093667;28;20035;-20
2022/03/27 09:52:13;;;;;;;28.23;19.30;;;24.80;30.80;;;;;;5093502;28;20027;-20
2022/03/27 09:54:53;;;;;;;26.55;18.95;;;25.10;30.60;;;;;;5094216;28;20036;-21
2022/03/27 09:57:33;;;;;;;26.35;18.38;;;25.40;29.90;;;;;;5093724;28;20027;-20
2022/03/27 10:00:11;;;;;;;18.77;12.90;;;25.70;28.70;;;;;;5093764;28;20032;-21
2022/03/27 10:02:38;;;;;;;19.20;12.98;;;25.90;29.60;;;;;;5092967;28;20549;-21
2022/03/27 10:05:08;;;;;;;21.52;15.07;;;26.20;29.70;;;;;;5093647;28;20044;-20
2022/03/27 10:07:45;;;;;;;25.58;16.65;;;26.50;29.20;;;;;;5093824;28;20093;-20
2022/03/27 10:10:17;;;;;;;28.20;19.33;;;26.80;28.70;;;;;;5093579;28;20036;-21
2022/03/27 10:12:46;;;;;;;26.30;17.70;;;27.10;28.60;;;;;;5093234;28;20471;-20
2022/03/27 10:15:23;;;;;;;21.90;15.48;;;27.40;28.20;;;;;;5093466;28;20023;-20
2022/03/27 10:17:56;;;;;;;27.02;17.67;;;27.50;28.10;;;;;;5093239;28;20027;-21
2022/03/27 10:20:36;;;;;;;25.80;18.98;;;27.80;27.90;;;;;;5093075;28;20387;-20
2022/03/27 10:23:09;;;;;;;23.73;16.25;;;28.00;27.40;;;;;;5093096;28;20471;-20
2022/03/27 10:25:44;;;;;;;23.40;16.40;;;28.20;27.30;;;;;;5093212;28;20024;-20
2022/03/27 10:28:11;;;;;;;26.02;19.25;;;28.40;27.10;;;;;;5093094;28;20515;-20
2022/03/27 10:30:38;;;;;;;25.27;17.00;;;28.50;26.90;;;;;;5092830;28;20063;-20
2022/03/27 10:33:07;;;;;;;19.42;14.20;;;28.60;26.90;;;;;;5093074;28;20035;-20
2022/03/27 10:35:59;;;;;;;25.23;17.67;;;28.90;26.90;;;;;;5093088;28;20031;-20
2022/03/27 10:38:51;;;;;;;27.08;18.80;;;29.20;25.80;;;;;;5090736;28;20028;-21
2022/03/27 10:41:42;;;;;;;20.77;16.02;;;29.40;24.10;;;;;;5091003;28;20025;-20
2022/03/27 10:44:11;;;;;;;22.83;17.10;;;29.60;25.40;;;;;;5090889;28;20485;-20
2022/03/27 10:46:37;;;;;;;25.88;20.15;;;29.80;25.90;;;;;;5090661;28;20035;-21
2022/03/27 10:49:14;;;;;;;22.85;17.08;;;29.90;25.30;;;;;;5090906;28;20044;-20
2022/03/27 10:51:46;;;;;;;21.88;16.55;;;30.10;24.50;;;;;;5090681;28;20069;-20
2022/03/27 10:54:14;;;;;;;16.92;12.77;;;30.20;25.20;;;;;;5090902;28;20124;-20
2022/03/27 10:56:43;;;;;;;25.85;20.02;;;30.40;25.40;;;;;;5093131;28;20459;-20
2022/03/27 10:59:13;;;;;;;24.55;16.63;;;30.60;24.90;;;;;;5094758;28;20036;-20
2022/03/27 11:01:44;;;;;;;25.60;18.52;;;30.90;24.50;;;;;;5094418;28;20137;-20
2022/03/27 11:04:15;;;;;;;18.73;15.32;;;31.00;24.40;;;;;;5094636;28;20071;-20
2022/03/27 11:06:46;;;;;;;21.88;16.35;;;31.20;24.60;;;;;;5094560;28;20024;-20
2022/03/27 11:09:32;;;;;;;20.70;15.85;;;31.40;24.20;;;;;;5094695;28;20040;-20
2022/03/27 11:11:59;;;;;;;24.33;18.45;;;31.60;22.20;;;;;;5094682;28;20162;-20
2022/03/27 11:14:51;;;;;;;23.25;17.80;;;31.80;23.50;;;;;;5094590;28;20509;-20
2022/03/27 11:17:29;;;;;;;21.58;17.38;;;31.90;21.70;;;;;;5096429;28;20043;-20
2022/03/27 11:19:55;;;;;;;23.48;17.55;;;32.00;22.50;;;;;;5096774;28;20028;-20
2022/03/27 11:22:52;;;;;;;19.23;14.32;;;32.10;23.20;;;;;;5096337;28;20487;-20
2022/03/27 11:25:36;;;;;;;21.83;16.60;;;32.20;22.20;;;;;;5096365;28;20392;-20
2022/03/27 11:28:11;;;;;;;26.23;17.08;;;32.50;21.60;;;;;;5096185;28;20461;-20
2022/03/27 11:30:50;;;;;;;20.63;15.85;;;32.70;22.90;;;;;;5096058;28;20020;-20
2022/03/27 11:33:24;;;;;;;18.48;13.35;;;32.90;22.60;;;;;;5096491;28;20028;-20
2022/03/27 11:36:07;;;;;;;21.85;16.20;;;33.00;22.80;;;;;;5096393;28;20020;-20
2022/03/27 11:39:04;;;;;;;22.80;17.38;;;33.20;21.70;;;;;;5096163;28;20040;-20
2022/03/27 11:41:34;;;;;;;20.85;15.52;;;33.40;20.20;;;;;;5096282;28;20024;-21
2022/03/27 11:44:20;;;;;;;22.80;17.45;;;33.80;22.20;;;;;;5096514;28;20027;-20
2022/03/27 11:46:54;;;;;;;20.08;15.90;;;33.90;18.00;;;;;;5095904;28;20479;-20
2022/03/27 11:49:36;;;;;;;21.00;16.83;;;34.10;20.80;;;;;;5096239;28;20020;-20
2022/03/27 11:52:10;;;;;;;18.45;14.27;;;34.20;20.50;;;;;;5096129;28;20038;-20
2022/03/27 11:54:37;;;;;;;21.70;16.30;;;34.20;20.60;;;;;;5095548;28;20024;-20
2022/03/27 11:57:05;;;;;;;19.10;15.07;;;34.30;20.90;;;;;;5096491;28;20101;-20
2022/03/27 11:59:42;;;;;;;17.45;12.95;;;34.40;20.90;;;;;;5095665;28;20093;-20
2022/03/27 12:02:08;;;;;;;18.50;13.98;;;34.60;21.00;;;;;;5095619;28;20071;-20
2022/03/27 12:04:57;;;;;;;20.50;16.00;;;34.80;20.80;;;;;;5094092;28;20384;-20
2022/03/27 12:07:25;;;;;;;17.25;14.30;;;35.00;19.90;;;;;;5095140;28;20032;-20
2022/03/27 12:10:04;;;;;;;16.17;13.13;;;35.20;20.60;;;;;;5095844;28;20020;-20
2022/03/27 12:12:32;;;;;;;19.17;15.25;;;35.40;19.80;;;;;;5095133;28;20502;-20
2022/03/27 12:15:08;;;;;;;15.98;13.13;;;35.60;19.70;;;;;;5095344;28;20024;-21
2022/03/27 12:17:44;;;;;;;16.63;12.93;;;35.70;19.70;;;;;;5095368;28;20507;-20
2022/03/27 12:20:11;;;;;;;16.08;13.23;;;35.90;18.70;;;;;;5094122;28;20020;-20
2022/03/27 12:22:41;;;;;;;18.48;14.38;;;35.90;19.40;;;;;;5095647;28;20043;-21
2022/03/27 12:25:25;;;;;;;18.60;13.57;;;36.00;19.00;;;;;;5095140;28;20036;-20
2022/03/27 12:30:50;;;;;;;16.27;12.57;;;36.00;16.90;;;;;;5095638;28;20043;-20
2022/03/27 12:33:24;;;;;;;15.18;12.65;;;36.10;19.00;;;;;;5095407;28;20021;-20
2022/03/27 12:36:10;;;;;;;11.95;9.68;;;36.20;18.50;;;;;;5095369;28;20024;-20
2022/03/27 12:38:37;;;;;;;16.13;12.68;;;36.30;18.40;;;;;;5094715;28;20507;-20
2022/03/27 12:41:04;;;;;;;19.55;14.90;;;36.50;19.00;;;;;;5094812;28;20032;-20
2022/03/27 12:43:30;;;;;;;16.10;12.88;;;36.70;18.60;;;;;;5094654;28;20024;-20
2022/03/27 12:45:56;;;;;;;16.00;12.95;;;36.80;18.60;;;;;;5095023;28;20020;-20
2022/03/27 12:48:27;;;;;;;17.83;14.10;;;36.90;18.40;;;;;;5094614;28;20482;-20
2022/03/27 12:50:56;;;;;;;18.45;14.57;;;36.90;18.20;;;;;;5095509;28;20032;-20